createdAt,value
2019-01-29T00:01:53.391Z,5.27
2019-01-29T00:07:00.762Z,4.53
2019-01-29T00:17:15.384Z,5.12
2019-01-29T00:22:22.684Z,4.15
2019-01-29T00:27:29.926Z,3.83
2019-01-29T00:32:37.382Z,5.97
2019-01-29T00:37:44.902Z,4.95
2019-01-29T00:42:52.132Z,3.50
2019-01-29T00:53:06.618Z,2.87
2019-01-29T01:03:20.746Z,3.60
2019-01-29T01:13:34.950Z,5.00
2019-01-29T01:23:50.755Z,5.10
2019-01-29T01:28:57.984Z,2.95
2019-01-29T01:34:04.994Z,5.50
2019-01-29T01:44:19.389Z,2.37
2019-01-29T01:49:27.253Z,6.50
2019-01-29T01:54:34.418Z,5.95
2019-01-29T01:59:41.712Z,4.25
2019-01-29T02:04:48.946Z,4.30
2019-01-29T02:15:03.962Z,4.63
2019-01-29T02:20:11.386Z,5.40
2019-01-29T02:25:18.958Z,5.60
2019-01-29T02:30:26.395Z,5.93
2019-01-29T02:35:33.483Z,5.55
2019-01-29T02:40:40.847Z,5.53
2019-01-29T02:50:54.876Z,7.80
2019-01-29T03:01:09.133Z,5.30
2019-01-29T03:06:16.536Z,7.00
2019-01-29T03:21:38.487Z,5.85
2019-01-29T03:26:45.999Z,9.68
2019-01-29T03:31:53.393Z,7.93
2019-01-29T03:37:01.097Z,7.30
2019-01-29T03:42:08.593Z,9.95
2019-01-29T03:47:16.993Z,9.00
2019-01-29T03:52:25.383Z,11.23
2019-01-29T04:02:41.972Z,7.75
2019-01-29T04:07:50.378Z,6.00
2019-01-29T04:12:58.094Z,6.42
2019-01-29T04:18:05.395Z,5.83
2019-01-29T04:23:12.918Z,4.77
2019-01-29T04:28:20.398Z,6.55
2019-01-29T04:33:27.921Z,4.47
2019-01-29T04:38:35.153Z,4.33
2019-01-29T04:43:42.508Z,4.97
2019-01-29T04:48:49.849Z,4.60
2019-01-29T04:53:57.812Z,4.60
2019-01-29T04:59:05.038Z,4.40
2019-01-29T05:09:19.719Z,4.63
2019-01-29T05:14:26.968Z,4.07
2019-01-29T05:19:34.390Z,2.02
2019-01-29T05:24:41.386Z,2.90
2019-01-29T05:29:48.947Z,2.95
2019-01-29T05:34:56.388Z,3.53
2019-01-29T05:40:15.929Z,4.00
2019-01-29T05:45:23.524Z,3.90
2019-01-29T05:50:30.859Z,2.90
2019-01-29T05:55:38.100Z,3.65
2019-01-29T06:00:45.396Z,3.47
2019-01-29T06:05:52.811Z,1.93
2019-01-29T06:11:00.030Z,2.58
2019-01-29T06:16:07.394Z,3.40
2019-01-29T06:21:15.472Z,3.10
2019-01-29T06:26:22.936Z,2.92
2019-01-29T06:31:30.382Z,3.07
2019-01-29T06:36:37.936Z,2.40
2019-01-29T06:41:45.380Z,3.50
2019-01-29T06:57:07.374Z,2.83
2019-01-29T07:02:14.690Z,3.07
2019-01-29T11:45:19.995Z,4.25
2019-01-29T11:50:27.598Z,3.85
2019-01-29T12:00:52.656Z,3.60
2019-01-29T12:05:59.998Z,3.83
2019-01-29T12:11:07.372Z,4.07
2019-01-29T12:26:29.088Z,2.47
2019-01-29T12:36:43.655Z,4.37
2019-01-29T12:46:57.899Z,3.80
2019-01-29T12:52:05.927Z,4.55
2019-01-29T12:57:13.222Z,4.65
2019-01-29T13:02:20.590Z,5.20
2019-01-29T13:07:27.855Z,3.87
2019-01-29T13:12:36.483Z,5.10
2019-01-29T13:17:43.936Z,6.70
2019-01-29T13:22:51.385Z,5.03
2019-01-29T13:38:12.738Z,6.53
2019-01-29T13:43:20.023Z,6.40
2019-01-29T13:53:34.461Z,6.80
2019-01-29T14:03:48.985Z,4.60
2019-01-29T14:08:55.954Z,5.72
2019-01-29T14:19:10.377Z,6.78
2019-01-29T14:39:41.970Z,5.87
2019-01-29T14:44:49.492Z,7.40
2019-01-29T14:49:56.466Z,12.27
2019-01-29T14:55:03.834Z,16.87
2019-01-29T15:15:32.663Z,9.93
2019-01-29T15:20:39.898Z,7.20
2019-01-29T15:25:47.119Z,9.90
2019-01-29T15:30:54.533Z,7.30
2019-01-29T15:36:01.510Z,8.57
2019-01-29T15:41:08.830Z,6.80
2019-01-29T15:46:16.051Z,8.20
2019-01-29T15:56:30.382Z,11.97
2019-01-29T16:06:44.798Z,11.70
2019-01-29T16:11:52.092Z,8.50
2019-01-29T16:22:06.315Z,8.43
2019-01-29T16:32:20.675Z,12.03
2019-01-29T16:37:29.875Z,11.17
2019-01-29T16:42:38.018Z,10.95
2019-01-29T16:47:45.382Z,11.00
2019-01-29T16:52:52.667Z,10.85
2019-01-29T17:03:06.866Z,10.80
2019-01-29T17:08:14.046Z,12.10
2019-01-29T17:13:21.382Z,11.70
2019-01-29T17:23:35.831Z,18.17
2019-01-29T17:28:42.987Z,19.27
2019-01-29T17:33:50.378Z,19.95
2019-01-29T17:38:57.663Z,24.75
2019-01-29T17:44:04.887Z,25.40
2019-01-29T17:49:24.374Z,29.07
2019-01-29T17:54:32.918Z,25.57
2019-01-29T17:59:39.863Z,29.63
2019-01-29T18:09:53.982Z,20.37
2019-01-29T18:15:01.403Z,21.13
2019-01-29T18:20:08.658Z,19.37
2019-01-29T18:25:16.624Z,17.70
2019-01-29T18:30:23.834Z,30.57
2019-01-29T18:35:31.124Z,28.60
2019-01-29T18:40:38.388Z,35.67
2019-01-29T18:45:45.661Z,35.30
2019-01-29T18:50:52.923Z,26.03
2019-01-29T18:56:00.925Z,29.50
2019-01-29T19:01:08.157Z,31.45
2019-01-29T19:06:15.386Z,33.10
2019-01-29T19:11:22.667Z,36.58
2019-01-29T19:16:29.882Z,39.43
2019-01-29T19:21:37.121Z,38.10
2019-01-29T19:26:44.383Z,39.27
2019-01-29T19:31:51.663Z,41.10
2019-01-29T19:36:58.888Z,37.60
2019-01-29T19:42:06.125Z,30.45
2019-01-29T19:47:13.384Z,30.30
2019-01-29T19:52:20.671Z,28.30
2019-01-29T19:57:27.874Z,25.70
2019-01-29T20:02:35.070Z,26.53
2019-01-29T20:07:42.475Z,25.30
2019-01-29T20:12:49.810Z,23.32
2019-01-29T20:17:56.998Z,19.67
2019-01-29T20:23:07.988Z,18.73
2019-01-29T20:28:16.757Z,18.20
2019-01-29T20:33:25.380Z,16.83
2019-01-29T20:38:35.174Z,13.95
2019-01-29T20:43:41.654Z,19.83
2019-01-29T20:48:48.871Z,19.10
2019-01-29T20:53:56.374Z,10.53
2019-01-29T20:59:03.650Z,12.80
2019-01-29T21:04:10.984Z,13.90
2019-01-29T21:09:18.371Z,11.43
2019-01-29T21:14:25.658Z,11.12
2019-01-29T21:19:33.401Z,12.77
2019-01-29T21:29:48.466Z,16.50
2019-01-29T21:34:55.960Z,18.15
2019-01-29T21:40:03.374Z,12.37
2019-01-29T21:50:17.790Z,13.80
2019-01-29T21:55:24.975Z,13.70
2019-01-29T22:00:34.014Z,13.63
2019-01-29T22:05:42.067Z,13.50
2019-01-29T22:10:49.382Z,13.70
2019-01-29T22:15:56.749Z,9.48
2019-01-29T22:21:04.047Z,8.37
2019-01-29T22:26:11.052Z,10.55
2019-01-29T22:31:18.374Z,7.63
2019-01-29T22:36:25.756Z,9.00
2019-01-29T22:41:32.948Z,8.33
2019-01-29T22:46:41.074Z,8.98
2019-01-29T22:51:48.384Z,7.65
2019-01-29T22:56:55.484Z,8.15
2019-01-29T23:02:04.848Z,7.30
2019-01-29T23:07:12.942Z,9.08
2019-01-29T23:12:20.582Z,9.47
2019-01-29T23:17:28.904Z,8.23
2019-01-29T23:27:44.808Z,6.87
2019-01-29T23:32:52.132Z,11.27
2019-01-29T23:38:01.616Z,10.67
2019-01-29T23:43:08.977Z,7.83
2019-01-29T23:48:16.385Z,7.93
2019-01-29T23:53:38.930Z,9.45
